Thomas, South Dakota
Current Conditions -  °F | °C
As of 5:53 AM on Friday 21 Nov 2014 (Local Time) from KATY Reporting Station
Clear Clear  
Wind Chill: -1°   Ceiling: Unl
Heat Index: 15°   Visibility: 10mi
Dew Point: 11°   Wind: 16mph
Humidity: 84%   Direction: 170°S
Pressure: 29.95"   Gusts: NA
Location:  44.6748°N, 97.2476°W
Report Text: KATY 211153Z AUTO 17014KT 10SM CLR M09/M12 A2995 RMK AO2 SLP177 T10941117 11094 21139 56026
Loading
Personal Weather Stations






























Interactive Weather Map New forecast layout! Learn more

10-Day Weather Forecast

Advertisements
Track Severe Weather on mobile